sensor_id;sensor_type;location;lat;lon;timestamp;temperature;humidity
66568;DHT22;53422;49.296;6.900;2022-12-08T00:00:46;4.20;99.90
66568;DHT22;53422;49.296;6.900;2022-12-08T00:03:11;4.20;99.90
66568;DHT22;53422;49.296;6.900;2022-12-08T00:05:37;4.20;99.90
66568;DHT22;53422;49.296;6.900;2022-12-08T00:08:21;4.20;99.90
66568;DHT22;53422;49.296;6.900;2022-12-08T00:11:11;4.20;99.90
66568;DHT22;53422;49.296;6.900;2022-12-08T00:13:37;4.20;99.90
66568;DHT22;53422;49.296;6.900;2022-12-08T00:16:02;4.20;99.90
66568;DHT22;53422;49.296;6.900;2022-12-08T00:18:28;4.20;99.90
66568;DHT22;53422;49.296;6.900;2022-12-08T00:20:57;4.20;99.90
66568;DHT22;53422;49.296;6.900;2022-12-08T00:23:23;4.20;99.90
66568;DHT22;53422;49.296;6.900;2022-12-08T00:25:49;4.20;99.90
66568;DHT22;53422;49.296;6.900;2022-12-08T00:28:15;4.20;99.90
66568;DHT22;53422;49.296;6.900;2022-12-08T00:30:41;4.20;99.90
66568;DHT22;53422;49.296;6.900;2022-12-08T00:33:08;4.20;99.90
66568;DHT22;53422;49.296;6.900;2022-12-08T00:35:33;4.20;99.90
66568;DHT22;53422;49.296;6.900;2022-12-08T00:37:59;4.20;99.90
66568;DHT22;53422;49.296;6.900;2022-12-08T00:40:25;4.20;99.90
66568;DHT22;53422;49.296;6.900;2022-12-08T00:42:51;4.20;99.90
66568;DHT22;53422;49.296;6.900;2022-12-08T00:45:16;4.20;99.90
66568;DHT22;53422;49.296;6.900;2022-12-08T00:47:42;4.20;99.90
66568;DHT22;53422;49.296;6.900;2022-12-08T00:50:08;4.20;99.90
66568;DHT22;53422;49.296;6.900;2022-12-08T00:52:34;4.20;99.90
66568;DHT22;53422;49.296;6.900;2022-12-08T00:54:59;4.20;99.90
66568;DHT22;53422;49.296;6.900;2022-12-08T00:57:25;4.20;99.90
66568;DHT22;53422;49.296;6.900;2022-12-08T00:59:51;4.20;99.90
66568;DHT22;53422;49.296;6.900;2022-12-08T01:02:16;4.20;99.90
66568;DHT22;53422;49.296;6.900;2022-12-08T01:04:42;4.20;99.90
66568;DHT22;53422;49.296;6.900;2022-12-08T01:07:08;4.20;99.90
66568;DHT22;53422;49.296;6.900;2022-12-08T01:09:33;4.20;99.90
66568;DHT22;53422;49.296;6.900;2022-12-08T01:11:59;4.20;99.90
66568;DHT22;53422;49.296;6.900;2022-12-08T01:14:25;4.20;99.90
66568;DHT22;53422;49.296;6.900;2022-12-08T01:16:51;4.20;99.90
66568;DHT22;53422;49.296;6.900;2022-12-08T01:19:16;4.20;99.90
66568;DHT22;53422;49.296;6.900;2022-12-08T01:21:43;4.20;99.90
66568;DHT22;53422;49.296;6.900;2022-12-08T01:24:14;4.20;99.90
66568;DHT22;53422;49.296;6.900;2022-12-08T01:26:40;4.20;99.90
66568;DHT22;53422;49.296;6.900;2022-12-08T01:29:06;4.20;99.90
66568;DHT22;53422;49.296;6.900;2022-12-08T01:31:31;4.20;99.90
66568;DHT22;53422;49.296;6.900;2022-12-08T01:33:57;4.20;99.90
66568;DHT22;53422;49.296;6.900;2022-12-08T01:36:28;4.20;99.90
66568;DHT22;53422;49.296;6.900;2022-12-08T01:38:57;4.20;99.90
66568;DHT22;53422;49.296;6.900;2022-12-08T01:41:25;4.20;99.90
66568;DHT22;53422;49.296;6.900;2022-12-08T01:46:44;4.20;99.90
66568;DHT22;53422;49.296;6.900;2022-12-08T01:49:14;4.20;99.90
66568;DHT22;53422;49.296;6.900;2022-12-08T01:54:36;4.20;99.90
66568;DHT22;53422;49.296;6.900;2022-12-08T01:57:13;4.20;99.90
66568;DHT22;53422;49.296;6.900;2022-12-08T01:59:43;4.20;99.90
66568;DHT22;53422;49.296;6.900;2022-12-08T02:02:11;4.20;99.90
66568;DHT22;53422;49.296;6.900;2022-12-08T02:04:37;4.20;99.90
66568;DHT22;53422;49.296;6.900;2022-12-08T02:07:04;4.20;99.90
66568;DHT22;53422;49.296;6.900;2022-12-08T02:09:31;4.20;99.90
66568;DHT22;53422;49.296;6.900;2022-12-08T02:11:57;4.20;99.90
66568;DHT22;53422;49.296;6.900;2022-12-08T02:14:24;4.20;99.90
66568;DHT22;53422;49.296;6.900;2022-12-08T02:37:04;4.20;99.90
66568;DHT22;53422;49.296;6.900;2022-12-08T02:42:46;4.20;99.90
66568;DHT22;53422;49.296;6.900;2022-12-08T02:45:29;4.20;99.90
66568;DHT22;53422;49.296;6.900;2022-12-08T02:47:57;4.20;99.90
66568;DHT22;53422;49.296;6.900;2022-12-08T02:50:23;4.20;99.90
66568;DHT22;53422;49.296;6.900;2022-12-08T02:52:49;4.20;99.90
66568;DHT22;53422;49.296;6.900;2022-12-08T02:56:01;4.20;99.90
66568;DHT22;53422;49.296;6.900;2022-12-08T03:04:57;4.10;99.90
66568;DHT22;53422;49.296;6.900;2022-12-08T03:07:30;4.20;99.90
66568;DHT22;53422;49.296;6.900;2022-12-08T03:10:05;4.20;99.90
66568;DHT22;53422;49.296;6.900;2022-12-08T03:12:48;4.10;99.90
66568;DHT22;53422;49.296;6.900;2022-12-08T03:15:18;4.20;99.90
66568;DHT22;53422;49.296;6.900;2022-12-08T03:17:57;4.20;99.90
66568;DHT22;53422;49.296;6.900;2022-12-08T03:20:24;4.10;99.90
66568;DHT22;53422;49.296;6.900;2022-12-08T03:22:52;4.10;99.90
66568;DHT22;53422;49.296;6.900;2022-12-08T03:25:22;4.10;99.90
66568;DHT22;53422;49.296;6.900;2022-12-08T03:27:48;4.10;99.90
66568;DHT22;53422;49.296;6.900;2022-12-08T03:30:15;4.10;99.90
66568;DHT22;53422;49.296;6.900;2022-12-08T03:32:57;4.10;99.90
66568;DHT22;53422;49.296;6.900;2022-12-08T03:35:28;4.20;99.90
66568;DHT22;53422;49.296;6.900;2022-12-08T03:38:06;4.10;99.90
66568;DHT22;53422;49.296;6.900;2022-12-08T03:40:33;4.10;99.90
66568;DHT22;53422;49.296;6.900;2022-12-08T03:42:59;4.10;99.90
66568;DHT22;53422;49.296;6.900;2022-12-08T03:45:24;4.20;99.90
66568;DHT22;53422;49.296;6.900;2022-12-08T03:47:50;4.10;99.90
66568;DHT22;53422;49.296;6.900;2022-12-08T03:50:16;4.10;99.90
66568;DHT22;53422;49.296;6.900;2022-12-08T03:52:42;4.10;99.90
66568;DHT22;53422;49.296;6.900;2022-12-08T03:55:08;4.10;99.90
66568;DHT22;53422;49.296;6.900;2022-12-08T03:57:33;4.10;99.90
66568;DHT22;53422;49.296;6.900;2022-12-08T03:59:59;4.10;99.90
66568;DHT22;53422;49.296;6.900;2022-12-08T04:02:25;4.10;99.90
66568;DHT22;53422;49.296;6.900;2022-12-08T04:04:50;4.10;99.90
66568;DHT22;53422;49.296;6.900;2022-12-08T04:07:16;4.10;99.90
66568;DHT22;53422;49.296;6.900;2022-12-08T04:09:41;4.10;99.90
66568;DHT22;53422;49.296;6.900;2022-12-08T04:12:08;4.10;99.90
66568;DHT22;53422;49.296;6.900;2022-12-08T04:14:33;4.10;99.90
66568;DHT22;53422;49.296;6.900;2022-12-08T04:16:59;4.10;99.90
66568;DHT22;53422;49.296;6.900;2022-12-08T04:19:24;4.10;99.90
66568;DHT22;53422;49.296;6.900;2022-12-08T04:21:50;4.00;99.90
66568;DHT22;53422;49.296;6.900;2022-12-08T04:24:16;4.10;99.90
66568;DHT22;53422;49.296;6.900;2022-12-08T04:26:41;4.10;99.90
66568;DHT22;53422;49.296;6.900;2022-12-08T04:29:07;4.10;99.90
66568;DHT22;53422;49.296;6.900;2022-12-08T04:31:33;4.10;99.90
66568;DHT22;53422;49.296;6.900;2022-12-08T04:33:58;4.10;99.90
66568;DHT22;53422;49.296;6.900;2022-12-08T04:36:24;4.10;99.90
66568;DHT22;53422;49.296;6.900;2022-12-08T04:38:49;4.10;99.90
66568;DHT22;53422;49.296;6.900;2022-12-08T04:41:15;4.10;99.90
66568;DHT22;53422;49.296;6.900;2022-12-08T04:43:41;4.10;99.90
66568;DHT22;53422;49.296;6.900;2022-12-08T04:46:09;4.10;99.90
66568;DHT22;53422;49.296;6.900;2022-12-08T04:48:38;4.10;99.90
66568;DHT22;53422;49.296;6.900;2022-12-08T04:51:05;4.10;99.90
66568;DHT22;53422;49.296;6.900;2022-12-08T04:53:31;4.10;99.90
66568;DHT22;53422;49.296;6.900;2022-12-08T04:55:57;4.20;99.90
66568;DHT22;53422;49.296;6.900;2022-12-08T04:58:23;4.10;99.90
66568;DHT22;53422;49.296;6.900;2022-12-08T05:00:49;4.20;99.90
66568;DHT22;53422;49.296;6.900;2022-12-08T05:03:15;4.10;99.90
66568;DHT22;53422;49.296;6.900;2022-12-08T05:05:41;4.10;99.90
66568;DHT22;53422;49.296;6.900;2022-12-08T05:08:08;4.10;99.90
66568;DHT22;53422;49.296;6.900;2022-12-08T05:10:34;4.10;99.90
66568;DHT22;53422;49.296;6.900;2022-12-08T05:12:59;4.10;99.90
66568;DHT22;53422;49.296;6.900;2022-12-08T05:15:25;4.10;99.90
66568;DHT22;53422;49.296;6.900;2022-12-08T05:17:51;4.10;99.90
66568;DHT22;53422;49.296;6.900;2022-12-08T05:20:17;4.10;99.90
66568;DHT22;53422;49.296;6.900;2022-12-08T05:22:42;4.10;99.90
66568;DHT22;53422;49.296;6.900;2022-12-08T05:25:08;4.10;99.90
66568;DHT22;53422;49.296;6.900;2022-12-08T05:27:34;4.10;99.90
66568;DHT22;53422;49.296;6.900;2022-12-08T05:30:00;4.10;99.90
66568;DHT22;53422;49.296;6.900;2022-12-08T05:32:26;4.10;99.90
66568;DHT22;53422;49.296;6.900;2022-12-08T05:34:51;4.10;99.90
66568;DHT22;53422;49.296;6.900;2022-12-08T05:37:17;4.10;99.90
66568;DHT22;53422;49.296;6.900;2022-12-08T05:39:42;4.10;99.90
66568;DHT22;53422;49.296;6.900;2022-12-08T05:42:08;4.10;99.90
66568;DHT22;53422;49.296;6.900;2022-12-08T05:44:34;4.10;99.90
66568;DHT22;53422;49.296;6.900;2022-12-08T05:46:59;4.10;99.90
66568;DHT22;53422;49.296;6.900;2022-12-08T05:49:25;4.10;99.90
66568;DHT22;53422;49.296;6.900;2022-12-08T05:51:51;4.10;99.90
66568;DHT22;53422;49.296;6.900;2022-12-08T05:54:16;4.10;99.90
66568;DHT22;53422;49.296;6.900;2022-12-08T05:56:42;4.10;99.90
66568;DHT22;53422;49.296;6.900;2022-12-08T05:59:08;4.10;99.90
66568;DHT22;53422;49.296;6.900;2022-12-08T06:01:34;4.10;99.90
66568;DHT22;53422;49.296;6.900;2022-12-08T06:04:01;4.10;99.90
66568;DHT22;53422;49.296;6.900;2022-12-08T06:06:27;4.10;99.90
66568;DHT22;53422;49.296;6.900;2022-12-08T06:08:53;4.10;99.90
66568;DHT22;53422;49.296;6.900;2022-12-08T06:11:27;4.10;99.90
66568;DHT22;53422;49.296;6.900;2022-12-08T06:13:54;4.10;99.90
66568;DHT22;53422;49.296;6.900;2022-12-08T06:16:21;4.10;99.90
66568;DHT22;53422;49.296;6.900;2022-12-08T06:18:47;4.10;99.90
66568;DHT22;53422;49.296;6.900;2022-12-08T06:21:14;4.10;99.90
66568;DHT22;53422;49.296;6.900;2022-12-08T06:23:40;4.10;99.90
66568;DHT22;53422;49.296;6.900;2022-12-08T06:26:11;4.10;99.90
66568;DHT22;53422;49.296;6.900;2022-12-08T06:28:38;4.10;99.90
66568;DHT22;53422;49.296;6.900;2022-12-08T06:31:15;4.10;99.90
66568;DHT22;53422;49.296;6.900;2022-12-08T06:33:42;4.10;99.90
66568;DHT22;53422;49.296;6.900;2022-12-08T06:36:10;4.10;99.90
66568;DHT22;53422;49.296;6.900;2022-12-08T06:38:36;4.10;99.90
66568;DHT22;53422;49.296;6.900;2022-12-08T06:41:02;4.10;99.90
66568;DHT22;53422;49.296;6.900;2022-12-08T06:43:30;4.20;99.90
66568;DHT22;53422;49.296;6.900;2022-12-08T06:45:55;4.10;99.90
66568;DHT22;53422;49.296;6.900;2022-12-08T06:48:21;4.10;99.90
66568;DHT22;53422;49.296;6.900;2022-12-08T06:50:46;4.20;99.90
66568;DHT22;53422;49.296;6.900;2022-12-08T06:53:16;4.10;99.90
66568;DHT22;53422;49.296;6.900;2022-12-08T06:55:46;4.10;99.90
66568;DHT22;53422;49.296;6.900;2022-12-08T06:58:12;4.10;99.90
66568;DHT22;53422;49.296;6.900;2022-12-08T07:00:40;4.10;99.90
66568;DHT22;53422;49.296;6.900;2022-12-08T07:03:07;4.10;99.90
66568;DHT22;53422;49.296;6.900;2022-12-08T07:05:33;4.10;99.90
66568;DHT22;53422;49.296;6.900;2022-12-08T07:07:59;4.10;99.90
66568;DHT22;53422;49.296;6.900;2022-12-08T07:10:24;4.10;99.90
66568;DHT22;53422;49.296;6.900;2022-12-08T07:12:50;4.10;99.90
66568;DHT22;53422;49.296;6.900;2022-12-08T07:15:16;4.10;99.90
66568;DHT22;53422;49.296;6.900;2022-12-08T07:17:41;4.10;99.90
66568;DHT22;53422;49.296;6.900;2022-12-08T07:20:08;4.10;99.90
66568;DHT22;53422;49.296;6.900;2022-12-08T07:22:34;4.00;99.90
66568;DHT22;53422;49.296;6.900;2022-12-08T07:24:59;4.10;99.90
66568;DHT22;53422;49.296;6.900;2022-12-08T07:27:25;4.10;99.90
66568;DHT22;53422;49.296;6.900;2022-12-08T07:29:51;4.00;99.90
66568;DHT22;53422;49.296;6.900;2022-12-08T07:32:16;4.10;99.90
66568;DHT22;53422;49.296;6.900;2022-12-08T07:34:42;4.10;99.90
66568;DHT22;53422;49.296;6.900;2022-12-08T07:37:07;4.10;99.90
66568;DHT22;53422;49.296;6.900;2022-12-08T07:39:33;4.10;99.90
66568;DHT22;53422;49.296;6.900;2022-12-08T07:41:58;4.10;99.90
66568;DHT22;53422;49.296;6.900;2022-12-08T07:44:24;4.10;99.90
66568;DHT22;53422;49.296;6.900;2022-12-08T07:46:50;4.10;99.90
66568;DHT22;53422;49.296;6.900;2022-12-08T07:49:19;4.10;99.90
66568;DHT22;53422;49.296;6.900;2022-12-08T07:51:44;4.10;99.90
66568;DHT22;53422;49.296;6.900;2022-12-08T07:54:11;4.10;99.90
66568;DHT22;53422;49.296;6.900;2022-12-08T07:56:37;4.10;99.90
66568;DHT22;53422;49.296;6.900;2022-12-08T07:59:03;4.10;99.90
66568;DHT22;53422;49.296;6.900;2022-12-08T08:01:30;4.10;99.90
66568;DHT22;53422;49.296;6.900;2022-12-08T08:03:59;4.10;99.90
66568;DHT22;53422;49.296;6.900;2022-12-08T08:06:29;4.10;99.90
66568;DHT22;53422;49.296;6.900;2022-12-08T08:08:56;4.10;99.90
66568;DHT22;53422;49.296;6.900;2022-12-08T08:11:22;4.10;99.90
66568;DHT22;53422;49.296;6.900;2022-12-08T08:13:49;4.10;99.90
66568;DHT22;53422;49.296;6.900;2022-12-08T08:16:15;4.00;99.90
66568;DHT22;53422;49.296;6.900;2022-12-08T08:18:41;4.10;99.90
66568;DHT22;53422;49.296;6.900;2022-12-08T08:21:08;4.00;99.90
66568;DHT22;53422;49.296;6.900;2022-12-08T08:23:34;4.10;99.90
66568;DHT22;53422;49.296;6.900;2022-12-08T08:26:01;4.10;99.90
66568;DHT22;53422;49.296;6.900;2022-12-08T08:28:28;4.10;99.90
66568;DHT22;53422;49.296;6.900;2022-12-08T08:30:54;4.10;99.90
66568;DHT22;53422;49.296;6.900;2022-12-08T08:33:19;4.10;99.90
66568;DHT22;53422;49.296;6.900;2022-12-08T08:35:45;4.10;99.90
66568;DHT22;53422;49.296;6.900;2022-12-08T08:38:11;4.10;99.90
66568;DHT22;53422;49.296;6.900;2022-12-08T08:40:36;4.10;99.90
66568;DHT22;53422;49.296;6.900;2022-12-08T08:43:03;4.10;99.90
66568;DHT22;53422;49.296;6.900;2022-12-08T08:45:29;4.10;99.90
66568;DHT22;53422;49.296;6.900;2022-12-08T08:47:55;4.10;99.90
66568;DHT22;53422;49.296;6.900;2022-12-08T08:50:21;4.10;99.90
66568;DHT22;53422;49.296;6.900;2022-12-08T08:52:47;4.10;99.90
66568;DHT22;53422;49.296;6.900;2022-12-08T08:55:12;4.10;99.90
66568;DHT22;53422;49.296;6.900;2022-12-08T08:57:38;4.10;99.90
66568;DHT22;53422;49.296;6.900;2022-12-08T09:00:05;4.10;99.90
66568;DHT22;53422;49.296;6.900;2022-12-08T09:02:31;4.10;99.90
66568;DHT22;53422;49.296;6.900;2022-12-08T09:04:57;4.10;99.90
66568;DHT22;53422;49.296;6.900;2022-12-08T09:07:22;4.10;99.90
66568;DHT22;53422;49.296;6.900;2022-12-08T09:09:48;4.10;99.90
66568;DHT22;53422;49.296;6.900;2022-12-08T09:12:14;4.10;99.90
66568;DHT22;53422;49.296;6.900;2022-12-08T09:14:39;4.10;99.90
66568;DHT22;53422;49.296;6.900;2022-12-08T09:17:07;4.10;99.90
66568;DHT22;53422;49.296;6.900;2022-12-08T09:19:33;4.20;99.90
66568;DHT22;53422;49.296;6.900;2022-12-08T09:21:59;4.20;99.90
66568;DHT22;53422;49.296;6.900;2022-12-08T09:24:25;4.20;99.90
66568;DHT22;53422;49.296;6.900;2022-12-08T09:26:50;4.20;99.90
66568;DHT22;53422;49.296;6.900;2022-12-08T09:29:16;4.20;99.90
66568;DHT22;53422;49.296;6.900;2022-12-08T09:31:42;4.20;99.90
66568;DHT22;53422;49.296;6.900;2022-12-08T09:34:09;4.20;99.90
66568;DHT22;53422;49.296;6.900;2022-12-08T09:36:34;4.20;99.90
66568;DHT22;53422;49.296;6.900;2022-12-08T09:39:00;4.20;99.90
66568;DHT22;53422;49.296;6.900;2022-12-08T09:47:07;4.30;99.90
66568;DHT22;53422;49.296;6.900;2022-12-08T09:49:40;4.30;99.90
66568;DHT22;53422;49.296;6.900;2022-12-08T09:52:19;4.30;99.90
66568;DHT22;53422;49.296;6.900;2022-12-08T09:54:45;4.30;99.90
66568;DHT22;53422;49.296;6.900;2022-12-08T09:57:16;4.30;99.90
66568;DHT22;53422;49.296;6.900;2022-12-08T09:59:53;4.30;99.90
66568;DHT22;53422;49.296;6.900;2022-12-08T10:02:22;4.30;99.90
66568;DHT22;53422;49.296;6.900;2022-12-08T10:04:48;4.40;99.90
66568;DHT22;53422;49.296;6.900;2022-12-08T10:12:33;4.30;99.90
66568;DHT22;53422;49.296;6.900;2022-12-08T10:16:25;4.40;99.90
66568;DHT22;53422;49.296;6.900;2022-12-08T10:18:26;4.40;99.90
66568;DHT22;53422;49.296;6.900;2022-12-08T10:20:51;4.40;99.90
66568;DHT22;53422;49.296;6.900;2022-12-08T10:23:26;4.40;99.90
66568;DHT22;53422;49.296;6.900;2022-12-08T10:26:04;4.40;99.90
66568;DHT22;53422;49.296;6.900;2022-12-08T10:28:31;4.50;99.90
66568;DHT22;53422;49.296;6.900;2022-12-08T10:30:57;4.40;99.90
66568;DHT22;53422;49.296;6.900;2022-12-08T10:33:23;4.50;99.90
66568;DHT22;53422;49.296;6.900;2022-12-08T10:35:54;4.40;99.90
66568;DHT22;53422;49.296;6.900;2022-12-08T10:38:32;4.50;99.90
66568;DHT22;53422;49.296;6.900;2022-12-08T10:43:37;4.50;99.90
66568;DHT22;53422;49.296;6.900;2022-12-08T10:46:12;4.50;99.90
66568;DHT22;53422;49.296;6.900;2022-12-08T10:53:59;4.50;99.90
66568;DHT22;53422;49.296;6.900;2022-12-08T10:56:29;4.50;99.90
66568;DHT22;53422;49.296;6.900;2022-12-08T10:59:16;4.60;99.90
66568;DHT22;53422;49.296;6.900;2022-12-08T11:01:46;4.60;99.90
66568;DHT22;53422;49.296;6.900;2022-12-08T11:04:18;4.50;99.90
66568;DHT22;53422;49.296;6.900;2022-12-08T11:06:44;4.60;99.90
66568;DHT22;53422;49.296;6.900;2022-12-08T11:14:31;4.60;99.90
66568;DHT22;53422;49.296;6.900;2022-12-08T11:19:57;4.60;99.90
66568;DHT22;53422;49.296;6.900;2022-12-08T11:25:10;4.70;99.90
66568;DHT22;53422;49.296;6.900;2022-12-08T11:27:38;4.70;99.90
66568;DHT22;53422;49.296;6.900;2022-12-08T11:30:24;4.70;99.90
66568;DHT22;53422;49.296;6.900;2022-12-08T11:32:54;4.70;99.90
66568;DHT22;53422;49.296;6.900;2022-12-08T11:35:49;4.70;99.90
66568;DHT22;53422;49.296;6.900;2022-12-08T11:38:20;4.70;99.90
66568;DHT22;53422;49.296;6.900;2022-12-08T11:40:47;4.80;99.90
66568;DHT22;53422;49.296;6.900;2022-12-08T11:45:43;4.80;99.90
66568;DHT22;53422;49.296;6.900;2022-12-08T11:48:19;4.80;99.90
66568;DHT22;53422;49.296;6.900;2022-12-08T11:50:55;4.80;99.90
66568;DHT22;53422;49.296;6.900;2022-12-08T11:53:37;4.80;99.90
66568;DHT22;53422;49.296;6.900;2022-12-08T11:56:18;4.80;99.90
66568;DHT22;53422;49.296;6.900;2022-12-08T11:58:48;4.80;99.90
66568;DHT22;53422;49.296;6.900;2022-12-08T12:01:22;4.80;99.90
66568;DHT22;53422;49.296;6.900;2022-12-08T12:03:58;4.80;99.90
66568;DHT22;53422;49.296;6.900;2022-12-08T12:12:03;4.90;99.90
66568;DHT22;53422;49.296;6.900;2022-12-08T12:17:46;4.80;99.90
66568;DHT22;53422;49.296;6.900;2022-12-08T12:20:23;4.90;99.90
66568;DHT22;53422;49.296;6.900;2022-12-08T12:22:55;4.80;99.90
66568;DHT22;53422;49.296;6.900;2022-12-08T12:25:24;4.80;99.90
66568;DHT22;53422;49.296;6.900;2022-12-08T12:27:50;4.90;99.90
66568;DHT22;53422;49.296;6.900;2022-12-08T12:30:27;4.90;99.90
66568;DHT22;53422;49.296;6.900;2022-12-08T12:32:59;4.90;99.90
66568;DHT22;53422;49.296;6.900;2022-12-08T12:38:17;4.90;99.90
66568;DHT22;53422;49.296;6.900;2022-12-08T12:41:04;4.90;99.90
66568;DHT22;53422;49.296;6.900;2022-12-08T12:43:33;4.90;99.90
66568;DHT22;53422;49.296;6.900;2022-12-08T12:48:47;4.90;99.90
66568;DHT22;53422;49.296;6.900;2022-12-08T12:54:24;5.00;99.90
66568;DHT22;53422;49.296;6.900;2022-12-08T12:57:18;5.00;99.90
66568;DHT22;53422;49.296;6.900;2022-12-08T13:02:22;5.00;99.90
66568;DHT22;53422;49.296;6.900;2022-12-08T13:07:42;5.10;99.90
66568;DHT22;53422;49.296;6.900;2022-12-08T13:12:41;5.10;99.90
66568;DHT22;53422;49.296;6.900;2022-12-08T13:15:17;5.10;99.90
66568;DHT22;53422;49.296;6.900;2022-12-08T13:17:47;5.10;99.90
66568;DHT22;53422;49.296;6.900;2022-12-08T13:20:22;5.10;99.90
66568;DHT22;53422;49.296;6.900;2022-12-08T13:23:02;5.10;99.90
66568;DHT22;53422;49.296;6.900;2022-12-08T13:30:43;5.10;99.90
66568;DHT22;53422;49.296;6.900;2022-12-08T13:33:14;5.10;99.90
66568;DHT22;53422;49.296;6.900;2022-12-08T13:35:46;5.10;99.90
66568;DHT22;53422;49.296;6.900;2022-12-08T13:38:16;5.10;99.90
66568;DHT22;53422;49.296;6.900;2022-12-08T13:40:44;5.10;99.90
66568;DHT22;53422;49.296;6.900;2022-12-08T13:45:44;5.10;99.90
66568;DHT22;53422;49.296;6.900;2022-12-08T13:48:17;5.10;99.90
66568;DHT22;53422;49.296;6.900;2022-12-08T13:50:57;5.10;99.90
66568;DHT22;53422;49.296;6.900;2022-12-08T13:53:34;5.10;99.90
66568;DHT22;53422;49.296;6.900;2022-12-08T13:56:03;5.10;99.90
66568;DHT22;53422;49.296;6.900;2022-12-08T13:58:32;5.10;99.90
66568;DHT22;53422;49.296;6.900;2022-12-08T14:01:11;5.20;99.90
66568;DHT22;53422;49.296;6.900;2022-12-08T14:03:55;5.20;99.90
66568;DHT22;53422;49.296;6.900;2022-12-08T14:06:35;5.10;99.90
66568;DHT22;53422;49.296;6.900;2022-12-08T14:09:04;5.10;99.90
66568;DHT22;53422;49.296;6.900;2022-12-08T14:11:35;5.10;99.90
66568;DHT22;53422;49.296;6.900;2022-12-08T14:14:10;5.10;99.90
66568;DHT22;53422;49.296;6.900;2022-12-08T14:16:43;5.10;99.90
66568;DHT22;53422;49.296;6.900;2022-12-08T14:19:22;5.10;99.90
66568;DHT22;53422;49.296;6.900;2022-12-08T14:24:25;5.10;99.90
66568;DHT22;53422;49.296;6.900;2022-12-08T14:26:53;5.10;99.90
66568;DHT22;53422;49.296;6.900;2022-12-08T14:29:47;5.10;99.90
66568;DHT22;53422;49.296;6.900;2022-12-08T14:32:24;5.10;99.90
66568;DHT22;53422;49.296;6.900;2022-12-08T14:34:52;5.10;99.90
66568;DHT22;53422;49.296;6.900;2022-12-08T14:37:18;5.10;99.90
66568;DHT22;53422;49.296;6.900;2022-12-08T14:39:45;5.10;99.90
66568;DHT22;53422;49.296;6.900;2022-12-08T14:42:23;5.10;99.90
66568;DHT22;53422;49.296;6.900;2022-12-08T14:44:59;5.10;99.90
66568;DHT22;53422;49.296;6.900;2022-12-08T14:47:32;5.10;99.90
66568;DHT22;53422;49.296;6.900;2022-12-08T14:50:00;5.10;99.90
66568;DHT22;53422;49.296;6.900;2022-12-08T14:52:26;5.10;99.90
66568;DHT22;53422;49.296;6.900;2022-12-08T14:54:52;5.10;99.90
66568;DHT22;53422;49.296;6.900;2022-12-08T14:57:19;5.10;99.90
66568;DHT22;53422;49.296;6.900;2022-12-08T14:59:45;5.10;99.90
66568;DHT22;53422;49.296;6.900;2022-12-08T15:04:43;5.10;99.90
66568;DHT22;53422;49.296;6.900;2022-12-08T15:07:18;5.00;99.90
66568;DHT22;53422;49.296;6.900;2022-12-08T15:09:48;5.00;99.90
66568;DHT22;53422;49.296;6.900;2022-12-08T15:12:20;5.10;99.90
66568;DHT22;53422;49.296;6.900;2022-12-08T15:20:31;5.00;99.90
66568;DHT22;53422;49.296;6.900;2022-12-08T15:22:58;5.00;99.90
66568;DHT22;53422;49.296;6.900;2022-12-08T15:25:24;5.00;99.90
66568;DHT22;53422;49.296;6.900;2022-12-08T15:27:50;5.00;99.90
66568;DHT22;53422;49.296;6.900;2022-12-08T15:30:18;5.00;99.90
66568;DHT22;53422;49.296;6.900;2022-12-08T15:32:43;5.00;99.90
66568;DHT22;53422;49.296;6.900;2022-12-08T15:35:13;4.90;99.90
66568;DHT22;53422;49.296;6.900;2022-12-08T15:37:40;4.90;99.90
66568;DHT22;53422;49.296;6.900;2022-12-08T15:40:06;4.90;99.90
66568;DHT22;53422;49.296;6.900;2022-12-08T15:42:35;4.90;99.90
66568;DHT22;53422;49.296;6.900;2022-12-08T15:45:01;4.80;99.90
66568;DHT22;53422;49.296;6.900;2022-12-08T15:47:27;4.90;99.90
66568;DHT22;53422;49.296;6.900;2022-12-08T15:49:52;4.80;99.90
66568;DHT22;53422;49.296;6.900;2022-12-08T15:52:20;4.80;99.90
66568;DHT22;53422;49.296;6.900;2022-12-08T15:54:46;4.80;99.90
66568;DHT22;53422;49.296;6.900;2022-12-08T15:57:24;4.80;99.90
66568;DHT22;53422;49.296;6.900;2022-12-08T15:59:50;4.70;99.90
66568;DHT22;53422;49.296;6.900;2022-12-08T16:02:17;4.80;99.90
66568;DHT22;53422;49.296;6.900;2022-12-08T16:04:42;4.70;99.90
66568;DHT22;53422;49.296;6.900;2022-12-08T16:07:28;4.70;99.90
66568;DHT22;53422;49.296;6.900;2022-12-08T16:09:55;4.70;99.90
66568;DHT22;53422;49.296;6.900;2022-12-08T16:12:21;4.70;99.90
66568;DHT22;53422;49.296;6.900;2022-12-08T16:15:06;4.70;99.90
66568;DHT22;53422;49.296;6.900;2022-12-08T16:17:32;4.70;99.90
66568;DHT22;53422;49.296;6.900;2022-12-08T16:19:59;4.70;99.90
66568;DHT22;53422;49.296;6.900;2022-12-08T16:22:27;4.70;99.90
66568;DHT22;53422;49.296;6.900;2022-12-08T16:24:53;4.70;99.90
66568;DHT22;53422;49.296;6.900;2022-12-08T16:27:31;4.60;99.90
66568;DHT22;53422;49.296;6.900;2022-12-08T16:29:58;4.60;99.90
66568;DHT22;53422;49.296;6.900;2022-12-08T16:32:25;4.60;99.90
66568;DHT22;53422;49.296;6.900;2022-12-08T16:34:51;4.60;99.90
66568;DHT22;53422;49.296;6.900;2022-12-08T16:37:19;4.60;99.90
66568;DHT22;53422;49.296;6.900;2022-12-08T16:39:45;4.60;99.90
66568;DHT22;53422;49.296;6.900;2022-12-08T16:42:15;4.60;99.90
66568;DHT22;53422;49.296;6.900;2022-12-08T16:45:06;4.50;99.90
66568;DHT22;53422;49.296;6.900;2022-12-08T16:47:33;4.60;99.90
66568;DHT22;53422;49.296;6.900;2022-12-08T16:49:58;4.60;99.90
66568;DHT22;53422;49.296;6.900;2022-12-08T16:52:24;4.50;99.90
66568;DHT22;53422;49.296;6.900;2022-12-08T16:54:50;4.50;99.90
66568;DHT22;53422;49.296;6.900;2022-12-08T16:57:15;4.50;99.90
66568;DHT22;53422;49.296;6.900;2022-12-08T16:59:41;4.50;99.90
66568;DHT22;53422;49.296;6.900;2022-12-08T17:02:07;4.50;99.90
66568;DHT22;53422;49.296;6.900;2022-12-08T17:04:34;4.50;99.90
66568;DHT22;53422;49.296;6.900;2022-12-08T17:07:00;4.50;99.90
66568;DHT22;53422;49.296;6.900;2022-12-08T17:09:26;4.50;99.90
66568;DHT22;53422;49.296;6.900;2022-12-08T17:11:52;4.50;99.90
66568;DHT22;53422;49.296;6.900;2022-12-08T17:14:18;4.50;99.90
66568;DHT22;53422;49.296;6.900;2022-12-08T17:16:44;4.50;99.90
66568;DHT22;53422;49.296;6.900;2022-12-08T17:19:12;4.50;99.90
66568;DHT22;53422;49.296;6.900;2022-12-08T17:21:37;4.40;99.90
66568;DHT22;53422;49.296;6.900;2022-12-08T17:24:04;4.40;99.90
66568;DHT22;53422;49.296;6.900;2022-12-08T17:26:29;4.40;99.90
66568;DHT22;53422;49.296;6.900;2022-12-08T17:28:55;4.40;99.90
66568;DHT22;53422;49.296;6.900;2022-12-08T17:31:21;4.40;99.90
66568;DHT22;53422;49.296;6.900;2022-12-08T17:33:46;4.40;99.90
66568;DHT22;53422;49.296;6.900;2022-12-08T17:36:14;4.40;99.90
66568;DHT22;53422;49.296;6.900;2022-12-08T17:38:40;4.40;99.90
66568;DHT22;53422;49.296;6.900;2022-12-08T17:41:08;4.40;99.90
66568;DHT22;53422;49.296;6.900;2022-12-08T17:43:34;4.40;99.90
66568;DHT22;53422;49.296;6.900;2022-12-08T17:46:00;4.40;99.90